Riyadh, Saudi Arabia
Current Conditions -  °F | °C
As of 11:00 AM on Monday 20 Oct 2014 (Local Time) from OERK Reporting Station
Clear Clear  
Wind Chill: 33°   Ceiling: Unl
Heat Index: 33°   Visibility: 5mi
Dew Point:   Wind: 12mph
Humidity: 12%   Direction: 180°S
Pressure: 29.97"   Gusts: 23mph
Location:  24.65°N, 46.77°E
Report Text: OERK 200800Z 18010G20KT 8000 NSC 33/00 Q1015 NOSIG
Loading
Personal Weather Stations






























Interactive Weather Map
Tropical Storm Tracking
New forecast layout! Learn more

10-Day Weather Forecast

Advertisements
Track Severe Weather on mobile